Terminal Aerodrome Forecast
Issued by NWS Charleston, WV

Current Version | Previous Version | Text Only | Print | Product List | Glossary Off
Versions: 1 2 3 4 5 6 7 8 9 10 11 12 13 14 15 16 17 18 19 20 21 22 23 24 25

000
FTUS41 KRLX 260235 AAA
TAFHTS
TAF AMD
KHTS 260235Z 2603/2624 00000KT P6SM SCT090
     FM261400 25009KT 5SM -SHRA BKN040
     FM261700 25009KT 5SM HZ VCTS BKN035CB=

USA.gov is the U.S. government's official web portal to all federal, state and local government web resources and services.